Airport View

Enter AWOS ICAO identifier for current METAR.

ex. KFNL

PARC 191856Z AUTO 18010KT 10SM CLR 18/05 A3008 RMK AO2 SLP204 T01830050

19 Jun 2019 19:55

Frequency: 135.75

Phone: 907-587-5654

Other Area AWOS: PFYU

TAF CYOC 191738Z 1918/2001 VRB03KT P6SM FEW030 SCT200 RMK NXT FCST WILL BE ISSUED AT 201445Z